Time;durP1;ratioP1;P1;durP2;ratioP2;P2;SDS_P1;SDS_P2;PMS_P1;PMS_P2;Temp;Humidity;BMP_temperature;BMP_pressure;BME280_temperature;BME280_humidity;BME280_pressure;Samples;Min_cycle;Max_cycle;Signal;HPM_P1;HPM_P2
2021/10/08 00:02:06;;;;;;;12.20;8.77;;;11.60;99.90;;;;;;5052758;28;20213;-76
2021/10/08 00:04:31;;;;;;;10.75;9.00;;;11.50;99.90;;;;;;5052439;28;20198;-77
2021/10/08 00:06:57;;;;;;;14.15;8.05;;;11.50;99.90;;;;;;5052510;28;20175;-76
2021/10/08 00:09:28;;;;;;;11.13;8.35;;;11.60;99.90;;;;;;5052564;28;20183;-78
2021/10/08 00:11:53;;;;;;;15.52;9.27;;;11.70;99.90;;;;;;5052873;28;20224;-87
2021/10/08 00:14:19;;;;;;;14.85;9.45;;;11.60;99.90;;;;;;5052547;28;20254;-80
2021/10/08 00:16:44;;;;;;;18.38;8.70;;;11.60;99.90;;;;;;5052610;28;20175;-77
2021/10/08 00:19:10;;;;;;;10.48;9.05;;;11.50;99.90;;;;;;5053037;28;20274;-76
2021/10/08 00:21:36;;;;;;;15.45;10.15;;;11.50;99.90;;;;;;5052293;28;20199;-77
2021/10/08 00:24:01;;;;;;;15.93;9.35;;;11.70;99.90;;;;;;5052125;28;20707;-76
2021/10/08 00:26:27;;;;;;;17.15;8.88;;;11.80;99.90;;;;;;5033863;28;20167;-77
2021/10/08 00:28:52;;;;;;;18.42;9.57;;;11.70;99.90;;;;;;5052024;28;20260;-77
2021/10/08 00:31:18;;;;;;;9.55;8.35;;;11.60;99.90;;;;;;5052122;28;20629;-77
2021/10/08 00:33:43;;;;;;;12.93;8.93;;;11.50;99.90;;;;;;5052321;28;20171;-77
2021/10/08 00:36:09;;;;;;;14.73;10.07;;;11.60;99.90;;;;;;5052154;28;20163;-82
2021/10/08 00:38:35;;;;;;;25.45;12.15;;;11.50;99.90;;;;;;5052597;28;20639;-83
2021/10/08 00:41:00;;;;;;;30.92;12.10;;;11.40;99.90;;;;;;5052424;28;20274;-88
2021/10/08 00:43:26;;;;;;;25.20;12.07;;;11.50;99.90;;;;;;5052707;28;20207;-77
2021/10/08 00:45:52;;;;;;;36.88;13.57;;;11.40;99.90;;;;;;5052887;28;20231;-88
2021/10/08 00:48:18;;;;;;;22.83;11.27;;;11.40;99.90;;;;;;5052884;28;20216;-84
2021/10/08 00:50:49;;;;;;;20.77;11.93;;;11.50;99.90;;;;;;5052177;28;20202;-84
2021/10/08 00:53:15;;;;;;;22.58;11.50;;;11.40;99.90;;;;;;5052108;28;20164;-77
2021/10/08 00:55:48;;;;;;;18.67;9.63;;;11.40;99.90;;;;;;5051752;28;20630;-80
2021/10/08 00:58:15;;;;;;;16.38;10.18;;;11.30;99.90;;;;;;5051913;28;20167;-78
2021/10/08 01:00:43;;;;;;;15.02;11.05;;;11.40;99.90;;;;;;5052228;28;20198;-76
2021/10/08 01:03:10;;;;;;;17.95;9.57;;;11.40;99.90;;;;;;5054122;28;20717;-77
2021/10/08 01:05:37;;;;;;;14.27;9.00;;;11.30;99.90;;;;;;5055608;28;20174;-81
2021/10/08 01:08:04;;;;;;;20.75;9.82;;;11.30;99.90;;;;;;5055932;28;20167;-76
2021/10/08 01:10:30;;;;;;;14.05;8.55;;;11.30;99.90;;;;;;5055839;28;20249;-77
2021/10/08 01:12:56;;;;;;;21.85;8.45;;;11.30;99.90;;;;;;5055693;28;20632;-77
2021/10/08 01:15:21;;;;;;;12.05;8.57;;;11.30;99.90;;;;;;5056080;28;20259;-87
2021/10/08 01:17:55;;;;;;;16.02;8.90;;;11.30;99.90;;;;;;5038293;28;20262;-87
2021/10/08 01:20:21;;;;;;;12.52;8.43;;;11.20;99.90;;;;;;5055679;28;20670;-78
2021/10/08 01:22:47;;;;;;;21.55;9.20;;;11.10;99.90;;;;;;5055659;28;20207;-76
2021/10/08 01:25:13;;;;;;;15.48;8.60;;;11.10;99.90;;;;;;5055546;28;20178;-87
2021/10/08 01:27:40;;;;;;;13.98;8.77;;;11.20;99.90;;;;;;5037897;28;20505;-78
2021/10/08 01:30:07;;;;;;;8.50;7.70;;;11.00;99.90;;;;;;5055167;28;20179;-76
2021/10/08 01:32:34;;;;;;;11.55;7.90;;;11.10;99.90;;;;;;5055270;28;20187;-77
2021/10/08 01:35:00;;;;;;;10.35;7.40;;;11.10;99.90;;;;;;5056071;28;20521;-81
2021/10/08 01:37:26;;;;;;;10.60;7.30;;;11.00;99.90;;;;;;5055773;28;20631;-88
2021/10/08 01:39:52;;;;;;;12.10;7.18;;;10.90;99.90;;;;;;5055519;28;20264;-78
2021/10/08 01:42:18;;;;;;;9.48;7.40;;;11.00;99.90;;;;;;5056793;28;20203;-84
2021/10/08 01:44:44;;;;;;;10.63;7.90;;;11.00;99.90;;;;;;5056479;28;20167;-88
2021/10/08 01:47:09;;;;;;;11.77;7.55;;;11.00;99.90;;;;;;5055180;28;20229;-77
2021/10/08 01:49:35;;;;;;;7.97;6.90;;;10.90;99.90;;;;;;5055074;28;20190;-81
2021/10/08 01:52:02;;;;;;;14.85;8.13;;;10.90;99.90;;;;;;5056176;28;20171;-85
2021/10/08 01:54:28;;;;;;;8.52;7.72;;;11.00;99.90;;;;;;5055931;28;20195;-80
2021/10/08 01:56:54;;;;;;;8.93;7.85;;;10.90;99.90;;;;;;5038418;28;20648;-77
2021/10/08 01:59:20;;;;;;;12.57;7.25;;;10.80;99.90;;;;;;5055259;28;20221;-88
2021/10/08 02:01:46;;;;;;;9.77;7.95;;;10.90;99.90;;;;;;5038140;28;20741;-76
2021/10/08 02:04:12;;;;;;;8.00;7.15;;;10.90;99.90;;;;;;5055496;28;20187;-81
2021/10/08 02:06:38;;;;;;;14.35;8.35;;;11.00;99.90;;;;;;5055181;28;20183;-82
2021/10/08 02:09:05;;;;;;;8.63;7.75;;;11.10;99.90;;;;;;5056391;28;20521;-79
2021/10/08 02:11:32;;;;;;;14.18;8.32;;;11.00;99.90;;;;;;5055543;28;20225;-86
2021/10/08 02:13:58;;;;;;;14.20;7.80;;;10.90;99.90;;;;;;5053340;28;20172;-78
2021/10/08 02:16:24;;;;;;;10.07;8.40;;;10.90;99.90;;;;;;5055991;28;20636;-88
2021/10/08 02:18:51;;;;;;;12.32;7.03;;;11.00;99.90;;;;;;5056411;28;20216;-78
2021/10/08 02:21:21;;;;;;;11.50;7.88;;;10.70;99.90;;;;;;5054987;28;20651;-76
2021/10/08 02:23:47;;;;;;;9.48;7.38;;;10.60;99.90;;;;;;5054619;28;20171;-76
2021/10/08 02:26:14;;;;;;;9.07;7.85;;;10.70;99.90;;;;;;5054945;28;20644;-80
2021/10/08 02:28:40;;;;;;;11.70;7.70;;;10.90;99.90;;;;;;5056087;28;20163;-77
2021/10/08 02:31:05;;;;;;;8.10;7.38;;;10.70;99.90;;;;;;5054899;28;20222;-76
2021/10/08 02:33:31;;;;;;;7.85;7.05;;;10.70;99.90;;;;;;5055137;28;20171;-78
2021/10/08 02:35:57;;;;;;;22.15;8.35;;;10.70;99.90;;;;;;5054739;28;20159;-78
2021/10/08 02:38:23;;;;;;;11.00;7.97;;;10.80;99.90;;;;;;5054553;28;20194;-88
2021/10/08 02:40:48;;;;;;;10.88;7.35;;;10.80;99.90;;;;;;5054627;28;20735;-83
2021/10/08 02:43:14;;;;;;;13.65;8.00;;;10.70;99.90;;;;;;5054850;28;20556;-89
2021/10/08 02:45:41;;;;;;;10.52;7.80;;;10.80;99.90;;;;;;5054433;28;20171;-88
2021/10/08 02:48:07;;;;;;;8.30;7.60;;;10.80;99.90;;;;;;5054895;28;20167;-77
2021/10/08 02:50:33;;;;;;;14.95;8.85;;;10.70;99.90;;;;;;5054385;28;20183;-85
2021/10/08 02:52:59;;;;;;;13.68;8.07;;;10.60;99.90;;;;;;5054305;28;20254;-88
2021/10/08 02:55:25;;;;;;;11.63;7.82;;;10.60;99.90;;;;;;5054441;28;20246;-88
2021/10/08 02:57:51;;;;;;;11.48;7.88;;;10.60;99.90;;;;;;5055384;28;20227;-77
2021/10/08 03:00:17;;;;;;;7.65;6.95;;;10.40;99.90;;;;;;5055020;28;20189;-85
2021/10/08 03:02:43;;;;;;;13.52;7.93;;;10.50;99.90;;;;;;5038347;28;20587;-84
2021/10/08 03:05:09;;;;;;;15.25;7.32;;;10.40;99.90;;;;;;5055527;28;20297;-87
2021/10/08 03:07:34;;;;;;;16.10;7.78;;;10.30;99.90;;;;;;5060395;28;20178;-85
2021/10/08 03:10:01;;;;;;;9.82;7.35;;;10.40;99.90;;;;;;5057850;28;20560;-82
2021/10/08 03:12:27;;;;;;;8.35;7.22;;;10.40;99.90;;;;;;5055806;28;20163;-88
2021/10/08 03:14:52;;;;;;;9.48;7.55;;;10.40;99.90;;;;;;5054022;28;20167;-78
2021/10/08 03:17:18;;;;;;;8.95;8.05;;;10.50;99.90;;;;;;5054523;28;20246;-77
2021/10/08 03:19:44;;;;;;;15.00;8.75;;;10.40;99.90;;;;;;5035678;28;20201;-82
2021/10/08 03:22:10;;;;;;;10.20;7.35;;;10.50;99.90;;;;;;5053179;28;20203;-81
2021/10/08 03:24:36;;;;;;;8.80;7.93;;;10.60;99.90;;;;;;5053130;28;20221;-84
2021/10/08 03:27:02;;;;;;;9.70;7.50;;;10.70;99.90;;;;;;5052766;28;20563;-77
2021/10/08 03:29:28;;;;;;;21.52;9.13;;;10.50;99.90;;;;;;5052554;28;20237;-80
2021/10/08 03:31:54;;;;;;;10.13;8.73;;;10.60;99.90;;;;;;5052456;28;20175;-77
2021/10/08 03:34:20;;;;;;;12.38;8.18;;;10.40;99.90;;;;;;5052590;28;20210;-88
2021/10/08 03:36:51;;;;;;;12.52;8.20;;;10.10;99.90;;;;;;5053733;28;20163;-87
2021/10/08 03:39:23;;;;;;;7.82;7.05;;;10.00;99.90;;;;;;5037682;28;20587;-87
2021/10/08 03:41:51;;;;;;;10.10;8.07;;;10.10;99.90;;;;;;5057459;28;20662;-89
2021/10/08 03:44:17;;;;;;;9.43;6.40;;;10.30;99.90;;;;;;5054644;28;20159;-80
2021/10/08 03:46:54;;;;;;;12.10;7.85;;;10.30;99.90;;;;;;5053835;28;20173;-84
2021/10/08 03:49:22;;;;;;;8.63;7.45;;;10.40;99.90;;;;;;5053144;28;20263;-89
2021/10/08 03:51:49;;;;;;;12.85;8.35;;;10.50;99.90;;;;;;5053982;28;20178;-86
2021/10/08 03:54:17;;;;;;;16.08;8.43;;;10.60;99.90;;;;;;5053736;28;20253;-79
2021/10/08 03:56:43;;;;;;;11.15;8.38;;;10.50;99.90;;;;;;5055861;28;20186;-87
2021/10/08 03:59:09;;;;;;;12.18;7.93;;;10.40;99.90;;;;;;5056551;28;20174;-85
2021/10/08 04:01:35;;;;;;;15.77;7.40;;;10.40;99.90;;;;;;5056390;28;20191;-85
2021/10/08 04:04:04;;;;;;;12.57;8.30;;;10.30;99.90;;;;;;5038107;28;20585;-89
2021/10/08 04:06:32;;;;;;;9.45;7.75;;;10.30;99.90;;;;;;5055190;28;20167;-87
2021/10/08 04:08:58;;;;;;;18.73;7.88;;;10.30;99.90;;;;;;5054533;28;20214;-89
2021/10/08 04:11:24;;;;;;;13.82;9.40;;;10.30;99.90;;;;;;5054095;28;20159;-80
2021/10/08 04:13:50;;;;;;;17.00;9.57;;;10.40;99.90;;;;;;5054533;28;20167;-78
2021/10/08 04:16:15;;;;;;;15.10;8.77;;;10.50;99.90;;;;;;5054455;28;20585;-86
2021/10/08 04:18:41;;;;;;;26.60;10.30;;;10.50;99.90;;;;;;5052895;28;20631;-87
2021/10/08 04:21:07;;;;;;;15.63;9.23;;;10.50;99.90;;;;;;5052774;28;20265;-86
2021/10/08 04:23:33;;;;;;;16.05;9.68;;;10.30;99.90;;;;;;5052919;28;20324;-85
2021/10/08 04:25:58;;;;;;;13.10;9.15;;;10.30;99.90;;;;;;5052830;28;20213;-83
2021/10/08 04:28:24;;;;;;;15.45;9.18;;;10.50;99.90;;;;;;5034947;28;20270;-80
2021/10/08 04:30:50;;;;;;;16.98;10.10;;;10.50;99.90;;;;;;5053419;28;20187;-78
2021/10/08 04:33:21;;;;;;;17.17;10.50;;;10.60;99.90;;;;;;5054230;28;20171;-89
2021/10/08 04:35:47;;;;;;;16.23;10.18;;;10.60;99.90;;;;;;5055048;28;20189;-83
2021/10/08 04:38:14;;;;;;;23.00;10.52;;;10.40;99.90;;;;;;5056714;28;20159;-82
2021/10/08 04:40:41;;;;;;;12.55;9.98;;;10.20;99.90;;;;;;5056994;28;20272;-82
2021/10/08 04:43:07;;;;;;;18.00;10.23;;;10.40;99.90;;;;;;5055996;28;20279;-85
2021/10/08 04:45:33;;;;;;;18.75;9.95;;;10.50;99.90;;;;;;5056500;28;20593;-79
2021/10/08 04:47:59;;;;;;;30.15;10.57;;;10.60;99.90;;;;;;5056774;28;20174;-88
2021/10/08 04:50:26;;;;;;;28.90;10.60;;;10.40;99.90;;;;;;5056697;28;20179;-85
2021/10/08 04:52:51;;;;;;;15.43;10.52;;;10.40;99.90;;;;;;5056500;28;20167;-88
2021/10/08 04:55:17;;;;;;;22.27;11.13;;;10.50;99.90;;;;;;5056476;28;20217;-88
2021/10/08 04:57:43;;;;;;;23.30;10.40;;;10.60;99.90;;;;;;5056236;28;21322;-82
2021/10/08 05:00:09;;;;;;;18.15;10.95;;;10.60;99.90;;;;;;5056608;28;20199;-88
2021/10/08 05:02:35;;;;;;;27.05;10.35;;;10.60;99.90;;;;;;5056014;28;20199;-89
2021/10/08 05:05:01;;;;;;;18.02;10.45;;;10.60;99.90;;;;;;5056444;28;20163;-85
2021/10/08 05:07:27;;;;;;;26.92;11.55;;;10.70;99.90;;;;;;5055916;28;20531;-81
2021/10/08 05:09:53;;;;;;;20.45;10.32;;;10.60;99.90;;;;;;5055138;28;20211;-81
2021/10/08 05:12:18;;;;;;;17.48;10.45;;;10.60;99.90;;;;;;5055355;28;20167;-78
2021/10/08 05:14:44;;;;;;;16.80;9.93;;;10.80;99.90;;;;;;5055165;28;20620;-75
2021/10/08 05:17:10;;;;;;;18.98;11.20;;;10.70;99.90;;;;;;5055077;28;20175;-77
2021/10/08 05:19:35;;;;;;;17.55;10.38;;;10.70;99.90;;;;;;5054679;28;20206;-76
2021/10/08 05:22:01;;;;;;;22.05;9.63;;;10.50;99.90;;;;;;5037129;28;20222;-77
2021/10/08 05:24:27;;;;;;;27.70;11.32;;;10.40;99.90;;;;;;5055255;28;20688;-87
2021/10/08 05:26:53;;;;;;;17.80;11.15;;;10.50;99.90;;;;;;5055213;28;20199;-77
2021/10/08 05:29:18;;;;;;;24.63;10.95;;;10.50;99.90;;;;;;5055024;28;20229;-82
2021/10/08 05:31:44;;;;;;;14.80;10.43;;;10.50;99.90;;;;;;5054539;28;20175;-76
2021/10/08 05:34:12;;;;;;;17.25;11.30;;;10.40;99.90;;;;;;5054889;28;20171;-77
2021/10/08 05:36:38;;;;;;;20.98;10.82;;;10.40;99.90;;;;;;5054716;28;20225;-76
2021/10/08 05:39:04;;;;;;;33.45;10.75;;;10.20;99.90;;;;;;5036752;28;20191;-77
2021/10/08 05:41:30;;;;;;;19.25;10.00;;;10.20;99.90;;;;;;5054146;28;20176;-76
2021/10/08 05:43:56;;;;;;;21.60;11.43;;;10.30;99.90;;;;;;5054460;28;20179;-79
2021/10/08 05:46:21;;;;;;;24.58;11.55;;;10.50;99.90;;;;;;5053865;28;20171;-79
2021/10/08 05:48:47;;;;;;;19.73;12.10;;;10.50;99.90;;;;;;5053991;28;20579;-79
2021/10/08 05:51:13;;;;;;;30.52;14.38;;;10.50;99.90;;;;;;5053593;28;20726;-77
2021/10/08 05:53:38;;;;;;;41.47;13.43;;;10.70;99.90;;;;;;5053780;28;20167;-79
2021/10/08 05:56:04;;;;;;;38.65;15.10;;;10.60;99.90;;;;;;5053901;28;20183;-77
2021/10/08 05:58:29;;;;;;;28.02;14.20;;;10.70;99.90;;;;;;5036616;28;20197;-76
2021/10/08 06:00:55;;;;;;;35.42;15.70;;;10.50;99.90;;;;;;5056101;28;20198;-83
2021/10/08 06:03:21;;;;;;;33.90;16.13;;;10.70;99.90;;;;;;5054681;28;20219;-88
2021/10/08 06:05:46;;;;;;;33.75;16.40;;;10.70;99.90;;;;;;5053803;28;20538;-77
2021/10/08 06:08:12;;;;;;;38.47;15.60;;;10.90;99.90;;;;;;5054451;28;20523;-89
2021/10/08 06:10:38;;;;;;;39.03;15.98;;;11.00;99.90;;;;;;5055492;28;20210;-85
2021/10/08 06:13:04;;;;;;;52.88;16.77;;;11.10;99.90;;;;;;5055808;28;20171;-80
2021/10/08 06:15:31;;;;;;;41.78;16.67;;;11.00;99.90;;;;;;5055512;28;20256;-88
2021/10/08 06:17:56;;;;;;;44.88;17.13;;;10.60;99.90;;;;;;5056518;28;20523;-82
2021/10/08 06:20:22;;;;;;;36.50;15.88;;;10.40;99.90;;;;;;5056391;28;20198;-87
2021/10/08 06:22:49;;;;;;;36.83;17.50;;;10.60;99.90;;;;;;5055023;28;20211;-87
2021/10/08 06:25:15;;;;;;;45.67;17.63;;;10.60;99.90;;;;;;5036962;28;20167;-80
2021/10/08 06:27:41;;;;;;;50.42;17.85;;;10.80;99.90;;;;;;5037240;28;20264;-81
2021/10/08 06:30:08;;;;;;;54.63;18.67;;;10.60;99.90;;;;;;5035035;28;20236;-87
2021/10/08 06:32:34;;;;;;;52.65;18.77;;;10.60;99.90;;;;;;5053523;28;20167;-86
2021/10/08 06:35:00;;;;;;;49.42;19.15;;;10.80;99.90;;;;;;5053102;28;20177;-77
2021/10/08 06:37:25;;;;;;;49.47;19.67;;;11.00;99.90;;;;;;5052892;28;20174;-78
2021/10/08 06:39:51;;;;;;;47.05;18.75;;;11.10;99.90;;;;;;5052985;28;20183;-77
2021/10/08 06:42:23;;;;;;;49.97;20.08;;;11.10;99.90;;;;;;5052603;28;20284;-82
2021/10/08 06:44:50;;;;;;;35.72;18.05;;;11.20;99.90;;;;;;5052841;28;20159;-78
2021/10/08 06:47:15;;;;;;;48.95;18.50;;;11.10;99.90;;;;;;5052792;28;20199;-78
2021/10/08 06:49:41;;;;;;;47.45;17.25;;;11.00;99.90;;;;;;5053036;28;20219;-78
2021/10/08 06:52:07;;;;;;;49.45;16.63;;;11.00;99.90;;;;;;5053149;28;20203;-79
2021/10/08 06:54:32;;;;;;;33.00;14.52;;;11.00;99.90;;;;;;5053508;28;20527;-79
2021/10/08 06:56:58;;;;;;;36.97;14.90;;;11.20;99.90;;;;;;5053018;28;20244;-78
2021/10/08 06:59:24;;;;;;;23.17;14.63;;;11.40;99.90;;;;;;5052169;28;20195;-79
2021/10/08 07:01:51;;;;;;;30.63;14.35;;;11.30;99.90;;;;;;5052604;28;20253;-77
2021/10/08 07:04:17;;;;;;;37.92;14.02;;;11.30;99.90;;;;;;5054014;28;20238;-81
2021/10/08 07:06:43;;;;;;;30.52;13.55;;;11.40;99.90;;;;;;5052431;28;20578;-83
2021/10/08 07:09:08;;;;;;;34.25;13.52;;;11.50;99.90;;;;;;5052776;28;20174;-80
2021/10/08 07:11:34;;;;;;;26.80;14.75;;;11.50;99.90;;;;;;5053305;28;20171;-84
2021/10/08 07:14:00;;;;;;;20.95;14.35;;;11.40;99.90;;;;;;5035410;28;20667;-77
2021/10/08 07:16:26;;;;;;;25.00;14.13;;;11.50;99.90;;;;;;5053279;28;20179;-77
2021/10/08 07:18:56;;;;;;;26.90;13.93;;;11.20;99.90;;;;;;5053229;28;20178;-89
2021/10/08 07:21:23;;;;;;;19.65;13.60;;;11.30;99.90;;;;;;5034729;28;20213;-80
2021/10/08 07:23:49;;;;;;;23.33;13.90;;;10.90;99.90;;;;;;5034746;28;20237;-79
2021/10/08 07:26:16;;;;;;;30.48;13.38;;;11.00;99.90;;;;;;5052325;28;20626;-80
2021/10/08 07:28:42;;;;;;;26.02;13.48;;;11.20;99.90;;;;;;5050818;28;20167;-79
2021/10/08 07:31:09;;;;;;;22.17;14.27;;;11.10;99.90;;;;;;5051174;28;20187;-78
2021/10/08 07:33:35;;;;;;;24.73;14.63;;;10.90;99.90;;;;;;5051507;28;20171;-79
2021/10/08 07:36:01;;;;;;;28.95;15.27;;;11.00;99.90;;;;;;5051101;28;20690;-77
2021/10/08 07:38:27;;;;;;;37.90;15.32;;;11.10;99.90;;;;;;5051657;28;20170;-79
2021/10/08 07:40:53;;;;;;;25.17;15.07;;;11.10;99.90;;;;;;5051729;28;20194;-77
2021/10/08 07:43:19;;;;;;;27.70;15.50;;;11.00;99.90;;;;;;5051855;28;20254;-78
2021/10/08 07:45:45;;;;;;;28.40;14.90;;;11.20;99.90;;;;;;5051807;28;20933;-78
2021/10/08 07:48:10;;;;;;;22.63;15.55;;;11.40;99.90;;;;;;5051984;28;20171;-79
2021/10/08 07:50:36;;;;;;;31.85;15.07;;;11.40;99.90;;;;;;5051456;28;20233;-80
2021/10/08 07:53:02;;;;;;;34.08;15.35;;;11.40;99.90;;;;;;5051658;28;20171;-79
2021/10/08 07:55:27;;;;;;;20.88;15.70;;;11.40;99.90;;;;;;5052228;28;20167;-78
2021/10/08 07:57:53;;;;;;;24.70;15.13;;;11.40;99.90;;;;;;5051706;28;20219;-83
2021/10/08 08:00:19;;;;;;;27.48;15.60;;;11.50;99.90;;;;;;5051476;28;20195;-78
2021/10/08 08:02:44;;;;;;;27.35;15.05;;;11.70;99.90;;;;;;5051619;28;20708;-77
2021/10/08 08:05:11;;;;;;;18.70;14.63;;;11.50;99.90;;;;;;5051707;28;20170;-77
2021/10/08 08:07:37;;;;;;;17.20;15.13;;;11.40;99.90;;;;;;5052103;28;20255;-77
2021/10/08 08:10:04;;;;;;;21.75;15.30;;;11.40;99.90;;;;;;5051694;28;20266;-78
2021/10/08 08:12:30;;;;;;;21.45;14.30;;;11.40;99.90;;;;;;5055296;28;20694;-78
2021/10/08 08:14:55;;;;;;;25.08;15.27;;;11.40;99.90;;;;;;5055828;28;20261;-78
2021/10/08 08:17:23;;;;;;;24.15;14.13;;;11.30;99.90;;;;;;5038319;28;20261;-78
2021/10/08 08:19:48;;;;;;;22.05;14.68;;;11.20;99.90;;;;;;5038204;28;20187;-78
2021/10/08 08:22:14;;;;;;;23.77;14.77;;;11.60;99.90;;;;;;5056128;28;20225;-77
2021/10/08 08:24:40;;;;;;;24.67;16.67;;;11.60;99.90;;;;;;5055115;28;20273;-78
2021/10/08 08:27:06;;;;;;;30.05;15.50;;;11.70;99.90;;;;;;5055338;28;20220;-77
2021/10/08 08:29:32;;;;;;;20.95;14.68;;;12.00;99.90;;;;;;5055632;28;20270;-78
2021/10/08 08:31:57;;;;;;;28.25;15.95;;;12.00;99.90;;;;;;5055366;28;20608;-78
2021/10/08 08:34:25;;;;;;;22.02;15.55;;;12.10;99.90;;;;;;5053824;28;20520;-78
2021/10/08 08:36:50;;;;;;;33.55;16.60;;;12.10;99.90;;;;;;5054536;28;20254;-79
2021/10/08 08:39:18;;;;;;;39.30;17.25;;;12.40;99.90;;;;;;5055226;28;20550;-79
2021/10/08 08:41:44;;;;;;;34.78;17.23;;;12.70;99.90;;;;;;5055203;28;20163;-79
2021/10/08 08:44:09;;;;;;;44.53;17.92;;;12.90;99.90;;;;;;5055421;28;20197;-80
2021/10/08 08:46:35;;;;;;;23.95;15.10;;;12.40;99.90;;;;;;5055163;28;20159;-78
2021/10/08 08:49:02;;;;;;;33.60;18.00;;;12.20;99.90;;;;;;5055210;28;20572;-78
2021/10/08 08:51:29;;;;;;;26.73;16.25;;;12.50;99.90;;;;;;5055142;28;20167;-89
2021/10/08 08:53:57;;;;;;;28.77;17.45;;;12.70;99.90;;;;;;5054972;28;20625;-78
2021/10/08 08:56:24;;;;;;;27.85;16.95;;;12.80;99.90;;;;;;5054825;28;20187;-78
2021/10/08 08:59:05;;;;;;;26.67;17.95;;;12.80;99.90;;;;;;5056026;28;20159;-84
2021/10/08 09:01:30;;;;;;;27.67;17.73;;;12.50;99.90;;;;;;5055926;28;20163;-83
2021/10/08 09:04:07;;;;;;;36.05;17.95;;;12.60;99.90;;;;;;5055699;28;20218;-85
2021/10/08 09:06:38;;;;;;;28.55;17.90;;;12.40;99.90;;;;;;5055767;28;20205;-85
2021/10/08 09:09:21;;;;;;;33.35;18.50;;;12.20;99.90;;;;;;5055167;28;20167;-84
2021/10/08 09:11:50;;;;;;;35.10;18.23;;;12.10;99.90;;;;;;5037404;28;20315;-86
2021/10/08 09:14:21;;;;;;;32.53;18.45;;;12.10;99.90;;;;;;5054471;28;20169;-80
2021/10/08 09:17:09;;;;;;;32.03;17.63;;;12.00;99.90;;;;;;5055011;28;20166;-81
2021/10/08 09:19:55;;;;;;;38.00;17.20;;;12.10;99.90;;;;;;5055033;28;20647;-83
2021/10/08 09:22:21;;;;;;;34.97;18.45;;;12.20;99.90;;;;;;5036419;28;20276;-79
2021/10/08 09:24:47;;;;;;;34.35;17.13;;;12.50;99.90;;;;;;5053021;28;20163;-80
2021/10/08 09:27:15;;;;;;;29.60;17.83;;;12.50;99.90;;;;;;5054973;28;20221;-82
2021/10/08 09:30:07;;;;;;;28.10;17.02;;;12.60;99.90;;;;;;5055271;28;20179;-79
2021/10/08 09:32:50;;;;;;;29.45;17.58;;;12.40;99.90;;;;;;5050758;28;20207;-83
2021/10/08 09:35:19;;;;;;;29.58;17.90;;;12.40;99.90;;;;;;5053675;28;20175;-83
2021/10/08 09:37:56;;;;;;;38.92;19.20;;;12.50;99.90;;;;;;5054747;28;20608;-78
2021/10/08 09:40:34;;;;;;;37.80;19.05;;;12.70;99.90;;;;;;5055176;28;20193;-86
2021/10/08 09:43:10;;;;;;;33.15;18.50;;;12.70;99.90;;;;;;5054645;28;20210;-78
2021/10/08 09:45:55;;;;;;;31.65;16.75;;;12.90;99.90;;;;;;5054147;28;20217;-84
2021/10/08 09:48:44;;;;;;;34.65;17.83;;;13.10;99.90;;;;;;5053467;28;20175;-76
2021/10/08 09:51:12;;;;;;;24.98;17.45;;;13.20;99.90;;;;;;5053659;28;20195;-77
2021/10/08 09:53:55;;;;;;;27.52;16.33;;;13.40;99.90;;;;;;5053912;28;20172;-78
2021/10/08 09:56:41;;;;;;;33.05;16.83;;;13.40;99.90;;;;;;5036069;28;20380;-76
2021/10/08 09:59:10;;;;;;;35.00;17.58;;;13.60;99.90;;;;;;5053700;28;20209;-79
2021/10/08 10:01:38;;;;;;;27.58;17.08;;;13.80;99.90;;;;;;5053736;28;20549;-85
2021/10/08 10:04:05;;;;;;;29.42;16.23;;;13.80;99.90;;;;;;5054927;28;20164;-86
2021/10/08 10:06:32;;;;;;;28.50;17.60;;;13.90;99.90;;;;;;5037342;28;20216;-87
2021/10/08 10:08:58;;;;;;;27.50;16.70;;;14.00;99.90;;;;;;5037822;28;20178;-88
2021/10/08 10:11:25;;;;;;;28.80;16.63;;;13.70;99.90;;;;;;5057422;28;20167;-83
2021/10/08 10:13:55;;;;;;;40.33;17.38;;;13.80;99.90;;;;;;5054957;28;20167;-86
2021/10/08 10:16:22;;;;;;;28.15;17.65;;;14.10;99.90;;;;;;5056071;28;20198;-87
2021/10/08 10:18:51;;;;;;;24.00;17.38;;;14.00;99.90;;;;;;5056496;28;20171;-93
2021/10/08 10:21:22;;;;;;;26.80;16.95;;;14.00;99.90;;;;;;5056314;28;20187;-87
2021/10/08 10:23:52;;;;;;;24.70;17.30;;;14.00;99.90;;;;;;5055190;28;20199;-81
2021/10/08 10:26:20;;;;;;;20.80;15.40;;;14.20;99.90;;;;;;5053946;28;20168;-89
2021/10/08 10:28:46;;;;;;;22.13;15.70;;;14.30;99.90;;;;;;5055295;28;20167;-85
2021/10/08 10:31:12;;;;;;;19.23;14.15;;;14.30;99.90;;;;;;5054304;28;20266;-84
2021/10/08 10:33:39;;;;;;;19.48;14.23;;;14.30;99.90;;;;;;5055961;28;20213;-87
2021/10/08 10:36:06;;;;;;;23.17;13.95;;;14.40;99.90;;;;;;5054603;28;20563;-85
2021/10/08 10:38:34;;;;;;;24.20;14.85;;;14.30;99.90;;;;;;5055040;28;20183;-85
2021/10/08 10:41:08;;;;;;;23.88;15.30;;;14.30;99.90;;;;;;5053875;28;20187;-80
2021/10/08 10:43:38;;;;;;;26.30;14.63;;;14.40;99.90;;;;;;5053408;28;20213;-84
2021/10/08 10:51:59;;;;;;;16.48;12.15;;;14.60;99.90;;;;;;5053099;28;20171;-79
2021/10/08 10:54:34;;;;;;;12.82;10.82;;;14.50;99.90;;;;;;5053552;28;20246;-84
2021/10/08 10:57:00;;;;;;;16.58;11.75;;;14.60;99.90;;;;;;5054110;28;20186;-85
2021/10/08 10:59:27;;;;;;;17.75;12.02;;;14.80;99.90;;;;;;5055911;28;20183;-83
2021/10/08 11:02:22;;;;;;;15.63;10.52;;;15.00;99.90;;;;;;5036135;28;20543;-83
2021/10/08 11:04:51;;;;;;;12.68;11.18;;;15.30;99.90;;;;;;5043952;28;20211;-77
2021/10/08 11:07:24;;;;;;;16.60;11.00;;;15.30;99.90;;;;;;5053501;28;20229;-85
2021/10/08 11:09:59;;;;;;;13.82;10.75;;;15.20;99.90;;;;;;5052964;28;20187;-79
2021/10/08 11:12:35;;;;;;;12.32;10.57;;;15.10;99.90;;;;;;5053183;28;20181;-82
2021/10/08 11:15:24;;;;;;;13.75;10.07;;;15.20;99.90;;;;;;5052635;28;20171;-84
2021/10/08 11:17:52;;;;;;;15.85;9.75;;;15.20;99.90;;;;;;5034528;28;20179;-84
2021/10/08 11:20:40;;;;;;;21.00;10.30;;;15.10;99.90;;;;;;5052513;28;20543;-83
2021/10/08 11:23:07;;;;;;;13.98;10.50;;;15.20;99.90;;;;;;5052355;28;20207;-84
2021/10/08 11:31:08;;;;;;;12.73;10.43;;;15.30;99.90;;;;;;4884648;26;20229;-92
2021/10/08 11:33:49;;;;;;;12.35;9.77;;;15.30;99.90;;;;;;5075040;28;20162;-93
2021/10/08 11:36:31;;;;;;;19.63;10.00;;;15.40;99.90;;;;;;5054888;28;20537;-77
2021/10/08 11:39:17;;;;;;;10.35;9.18;;;15.40;99.90;;;;;;5071386;28;20265;-78
2021/10/08 11:41:59;;;;;;;9.40;8.43;;;15.40;99.90;;;;;;5070647;28;20540;-78
2021/10/08 11:44:29;;;;;;;11.65;9.52;;;15.40;99.90;;;;;;5072470;28;20586;-79
2021/10/08 11:52:01;;;;;;;10.90;8.30;;;15.30;99.90;;;;;;5072283;28;20198;-79
2021/10/08 11:54:27;;;;;;;8.82;8.02;;;15.40;99.90;;;;;;5072225;28;20676;-78
2021/10/08 11:57:05;;;;;;;9.95;7.88;;;15.40;99.90;;;;;;5072467;28;20668;-78
2021/10/08 11:59:32;;;;;;;10.80;8.70;;;15.50;99.90;;;;;;5072756;28;20249;-78
2021/10/08 12:02:15;;;;;;;9.68;7.78;;;15.70;99.90;;;;;;5072558;28;20201;-78
2021/10/08 12:05:02;;;;;;;11.65;7.95;;;15.60;99.90;;;;;;5072915;28;20328;-79
2021/10/08 12:07:34;;;;;;;7.55;6.85;;;15.60;99.90;;;;;;5072337;28;20217;-78
2021/10/08 12:10:11;;;;;;;9.75;8.25;;;15.70;99.90;;;;;;5072836;28;20167;-78
2021/10/08 12:12:52;;;;;;;10.00;7.72;;;15.90;99.90;;;;;;5073250;28;20162;-79
2021/10/08 12:15:30;;;;;;;8.60;7.45;;;15.90;99.90;;;;;;5073061;28;20189;-79
2021/10/08 12:17:57;;;;;;;7.88;7.18;;;16.00;99.90;;;;;;5072678;28;20194;-78
2021/10/08 12:20:26;;;;;;;21.73;9.30;;;16.00;99.90;;;;;;5073277;28;20280;-78
2021/10/08 12:23:13;;;;;;;13.43;9.00;;;16.00;99.90;;;;;;5072967;28;20210;-78
2021/10/08 12:25:41;;;;;;;14.02;8.43;;;16.10;99.90;;;;;;5072412;28;20564;-78
2021/10/08 12:28:08;;;;;;;9.80;7.85;;;16.00;99.90;;;;;;5072377;28;20216;-78
2021/10/08 12:30:47;;;;;;;9.02;7.20;;;16.00;99.90;;;;;;5072770;28;20300;-78
2021/10/08 12:33:21;;;;;;;7.20;6.53;;;16.10;99.90;;;;;;5072658;28;20654;-78
2021/10/08 12:36:14;;;;;;;8.07;7.22;;;16.20;99.90;;;;;;5073288;28;20154;-78
2021/10/08 12:39:04;;;;;;;9.82;8.43;;;16.30;99.90;;;;;;5071778;28;20166;-78
2021/10/08 12:41:59;;;;;;;6.85;6.20;;;16.30;99.90;;;;;;5072558;28;20251;-78
2021/10/08 12:44:29;;;;;;;8.43;7.32;;;16.30;99.90;;;;;;5072180;28;20584;-78
2021/10/08 12:46:57;;;;;;;10.98;7.30;;;16.40;99.90;;;;;;5072080;28;20189;-78
2021/10/08 12:49:27;;;;;;;7.72;7.03;;;16.30;99.90;;;;;;5072378;28;20249;-79
2021/10/08 12:51:54;;;;;;;9.40;8.07;;;16.30;99.90;;;;;;5072223;28;20205;-78
2021/10/08 12:54:24;;;;;;;7.85;7.15;;;16.40;99.90;;;;;;5072055;28;20247;-78
2021/10/08 12:57:13;;;;;;;8.65;7.80;;;16.50;99.90;;;;;;5071744;28;20205;-78